Lone Rock, Wisconsin
Current Conditions -  °F | °C
As of 7:56 PM on Saturday 25 Oct 2014 (Local Time) from KLNR Reporting Station
Clear Clear  
Wind Chill: 60°   Ceiling: Unl
Heat Index: 60°   Visibility: 10mi
Dew Point: 27°   Wind: 8mph
Humidity: 28%   Direction: 280°W
Pressure: 30"   Gusts: NA
Location:  43.18°N, 90.2°W
Report Text: KLNR 260056Z AUTO 28007KT 10SM CLR 16/M03 A3000 RMK AO2 SLP154 T01561028
Loading
Personal Weather Stations






























Interactive Weather Map
Tropical Storm Tracking
New forecast layout! Learn more

10-Day Weather Forecast

Advertisements
Track Severe Weather on mobile